sensor_id;sensor_type;location;lat;lon;timestamp;pressure;altitude;pressure_sealevel;temperature;humidity
57232;BME280;43488;46.934;8.276;2023-02-10T00:01:39;98299.53;;;-0.69;70.81
57232;BME280;43488;46.934;8.276;2023-02-10T00:04:06;98298.16;;;-0.75;70.83
57232;BME280;43488;46.934;8.276;2023-02-10T00:06:33;98295.88;;;-0.79;70.94
57232;BME280;43488;46.934;8.276;2023-02-10T00:09:02;98297.97;;;-0.86;71.59
57232;BME280;43488;46.934;8.276;2023-02-10T00:11:30;98295.50;;;-0.88;71.63
57232;BME280;43488;46.934;8.276;2023-02-10T00:14:18;98288.91;;;-0.93;71.96
57232;BME280;43488;46.934;8.276;2023-02-10T00:16:50;98290.22;;;-0.86;71.32
57232;BME280;43488;46.934;8.276;2023-02-10T00:19:21;98299.09;;;-0.90;71.06
57232;BME280;43488;46.934;8.276;2023-02-10T00:21:49;98306.03;;;-0.91;70.94
57232;BME280;43488;46.934;8.276;2023-02-10T00:24:17;98297.88;;;-0.84;71.28
57232;BME280;43488;46.934;8.276;2023-02-10T00:26:45;98304.53;;;-0.80;71.56
57232;BME280;43488;46.934;8.276;2023-02-10T00:29:13;98296.22;;;-0.86;72.08
57232;BME280;43488;46.934;8.276;2023-02-10T00:31:42;98298.91;;;-0.87;72.60
57232;BME280;43488;46.934;8.276;2023-02-10T00:34:15;98308.03;;;-0.96;72.53
57232;BME280;43488;46.934;8.276;2023-02-10T00:36:42;98305.34;;;-0.94;72.47
57232;BME280;43488;46.934;8.276;2023-02-10T00:39:16;98307.69;;;-0.90;72.24
57232;BME280;43488;46.934;8.276;2023-02-10T00:41:44;98308.97;;;-0.97;71.72
57232;BME280;43488;46.934;8.276;2023-02-10T00:44:11;98311.75;;;-1.00;70.87
57232;BME280;43488;46.934;8.276;2023-02-10T00:46:39;98320.69;;;-1.05;71.46
57232;BME280;43488;46.934;8.276;2023-02-10T00:49:09;98320.59;;;-1.04;71.91
57232;BME280;43488;46.934;8.276;2023-02-10T00:51:36;98319.75;;;-1.19;72.43
57232;BME280;43488;46.934;8.276;2023-02-10T00:54:04;98312.34;;;-1.25;72.43
57232;BME280;43488;46.934;8.276;2023-02-10T00:56:31;98313.72;;;-1.33;72.47
57232;BME280;43488;46.934;8.276;2023-02-10T00:58:58;98319.53;;;-1.30;72.62
57232;BME280;43488;46.934;8.276;2023-02-10T01:01:25;98318.97;;;-1.35;72.93
57232;BME280;43488;46.934;8.276;2023-02-10T01:03:53;98317.88;;;-1.31;72.99
57232;BME280;43488;46.934;8.276;2023-02-10T01:06:20;98319.91;;;-1.22;72.55
57232;BME280;43488;46.934;8.276;2023-02-10T01:08:47;98327.13;;;-1.27;72.61
57232;BME280;43488;46.934;8.276;2023-02-10T01:11:15;98327.28;;;-1.30;73.12
57232;BME280;43488;46.934;8.276;2023-02-10T01:13:44;98322.31;;;-1.33;73.18
57232;BME280;43488;46.934;8.276;2023-02-10T01:16:14;98318.97;;;-1.35;73.57
57232;BME280;43488;46.934;8.276;2023-02-10T01:18:44;98330.63;;;-1.28;73.45
57232;BME280;43488;46.934;8.276;2023-02-10T01:21:16;98325.81;;;-1.20;73.08
57232;BME280;43488;46.934;8.276;2023-02-10T01:23:45;98326.75;;;-1.21;72.38
57232;BME280;43488;46.934;8.276;2023-02-10T01:26:14;98337.72;;;-1.31;72.91
57232;BME280;43488;46.934;8.276;2023-02-10T01:28:42;98334.09;;;-1.29;72.54
57232;BME280;43488;46.934;8.276;2023-02-10T01:31:16;98345.25;;;-1.42;73.26
57232;BME280;43488;46.934;8.276;2023-02-10T01:33:45;98339.59;;;-1.49;72.48
57232;BME280;43488;46.934;8.276;2023-02-10T01:36:15;98334.81;;;-1.55;74.26
57232;BME280;43488;46.934;8.276;2023-02-10T01:38:44;98339.91;;;-1.69;74.96
57232;BME280;43488;46.934;8.276;2023-02-10T01:41:14;98342.88;;;-1.61;75.02
57232;BME280;43488;46.934;8.276;2023-02-10T01:44:05;98331.09;;;-1.51;74.44
57232;BME280;43488;46.934;8.276;2023-02-10T01:46:34;98342.75;;;-1.44;73.70
57232;BME280;43488;46.934;8.276;2023-02-10T01:49:08;98349.69;;;-1.45;73.02
57232;BME280;43488;46.934;8.276;2023-02-10T01:51:58;98347.84;;;-1.42;74.86
57232;BME280;43488;46.934;8.276;2023-02-10T01:54:42;98347.66;;;-1.39;74.29
57232;BME280;43488;46.934;8.276;2023-02-10T01:57:11;98349.59;;;-1.43;75.29
57232;BME280;43488;46.934;8.276;2023-02-10T01:59:40;98355.50;;;-1.41;74.54
57232;BME280;43488;46.934;8.276;2023-02-10T02:02:10;98358.66;;;-1.36;74.68
57232;BME280;43488;46.934;8.276;2023-02-10T02:04:52;98361.97;;;-1.34;73.80
57232;BME280;43488;46.934;8.276;2023-02-10T02:07:28;98363.63;;;-1.33;73.35
57232;BME280;43488;46.934;8.276;2023-02-10T02:09:57;98372.31;;;-1.34;73.53
57232;BME280;43488;46.934;8.276;2023-02-10T02:12:55;98361.06;;;-1.33;73.15
57232;BME280;43488;46.934;8.276;2023-02-10T02:24:43;98376.78;;;-1.52;73.87
57232;BME280;43488;46.934;8.276;2023-02-10T02:30:28;98372.03;;;-1.59;73.41
57232;BME280;43488;46.934;8.276;2023-02-10T02:33:46;98380.69;;;-1.60;73.61
57232;BME280;43488;46.934;8.276;2023-02-10T02:36:23;98387.34;;;-1.56;73.86
57232;BME280;43488;46.934;8.276;2023-02-10T02:39:00;98389.94;;;-1.56;73.48
57232;BME280;43488;46.934;8.276;2023-02-10T02:41:32;98387.34;;;-1.56;74.24
57232;BME280;43488;46.934;8.276;2023-02-10T02:44:01;98398.78;;;-1.60;73.65
57232;BME280;43488;46.934;8.276;2023-02-10T02:47:00;98386.06;;;-1.63;73.93
57232;BME280;43488;46.934;8.276;2023-02-10T02:58:43;98385.88;;;-1.76;73.46
57232;BME280;43488;46.934;8.276;2023-02-10T03:01:28;98390.56;;;-1.83;73.89
57232;BME280;43488;46.934;8.276;2023-02-10T03:03:58;98382.06;;;-1.85;73.97
57232;BME280;43488;46.934;8.276;2023-02-10T03:06:26;98380.75;;;-1.92;74.01
57232;BME280;43488;46.934;8.276;2023-02-10T03:08:55;98376.97;;;-2.02;74.07
57232;BME280;43488;46.934;8.276;2023-02-10T03:11:22;98378.06;;;-2.06;74.20
57232;BME280;43488;46.934;8.276;2023-02-10T03:13:50;98388.91;;;-1.99;73.93
57232;BME280;43488;46.934;8.276;2023-02-10T03:16:18;98384.47;;;-1.97;73.88
57232;BME280;43488;46.934;8.276;2023-02-10T03:18:45;98388.13;;;-2.02;74.17
57232;BME280;43488;46.934;8.276;2023-02-10T03:21:12;98380.38;;;-2.02;74.07
57232;BME280;43488;46.934;8.276;2023-02-10T03:23:40;98387.25;;;-2.01;74.33
57232;BME280;43488;46.934;8.276;2023-02-10T03:26:08;98383.72;;;-2.15;74.65
57232;BME280;43488;46.934;8.276;2023-02-10T03:28:35;98371.44;;;-2.10;74.48
57232;BME280;43488;46.934;8.276;2023-02-10T03:31:07;98358.53;;;-2.10;74.28
57232;BME280;43488;46.934;8.276;2023-02-10T03:33:36;98366.25;;;-2.10;74.32
57232;BME280;43488;46.934;8.276;2023-02-10T03:36:04;98374.00;;;-2.10;75.27
57232;BME280;43488;46.934;8.276;2023-02-10T03:38:32;98365.50;;;-2.12;76.97
57232;BME280;43488;46.934;8.276;2023-02-10T03:40:59;98367.00;;;-2.08;78.57
57232;BME280;43488;46.934;8.276;2023-02-10T03:43:27;98359.81;;;-2.03;77.28
57232;BME280;43488;46.934;8.276;2023-02-10T03:45:55;98367.94;;;-2.09;76.63
57232;BME280;43488;46.934;8.276;2023-02-10T03:48:23;98360.00;;;-2.06;76.83
57232;BME280;43488;46.934;8.276;2023-02-10T03:50:54;98368.50;;;-2.04;76.34
57232;BME280;43488;46.934;8.276;2023-02-10T03:53:22;98370.84;;;-2.15;75.89
57232;BME280;43488;46.934;8.276;2023-02-10T03:55:49;98377.41;;;-2.25;76.17
57232;BME280;43488;46.934;8.276;2023-02-10T03:58:16;98373.16;;;-2.26;76.42
57232;BME280;43488;46.934;8.276;2023-02-10T04:00:44;98363.31;;;-2.20;76.62
57232;BME280;43488;46.934;8.276;2023-02-10T04:03:11;98368.56;;;-2.21;76.49
57232;BME280;43488;46.934;8.276;2023-02-10T04:05:40;98376.41;;;-2.23;76.09
57232;BME280;43488;46.934;8.276;2023-02-10T04:08:08;98378.81;;;-2.36;75.82
57232;BME280;43488;46.934;8.276;2023-02-10T04:10:35;98376.16;;;-2.34;76.46
57232;BME280;43488;46.934;8.276;2023-02-10T04:13:05;98382.56;;;-2.25;77.22
57232;BME280;43488;46.934;8.276;2023-02-10T04:15:33;98382.16;;;-2.18;78.07
57232;BME280;43488;46.934;8.276;2023-02-10T04:18:00;98377.47;;;-2.11;79.08
57232;BME280;43488;46.934;8.276;2023-02-10T04:20:34;98376.25;;;-2.04;79.94
57232;BME280;43488;46.934;8.276;2023-02-10T04:23:01;98386.56;;;-2.04;79.27
57232;BME280;43488;46.934;8.276;2023-02-10T04:25:29;98394.16;;;-2.01;78.98
57232;BME280;43488;46.934;8.276;2023-02-10T04:27:57;98392.22;;;-1.97;78.50
57232;BME280;43488;46.934;8.276;2023-02-10T04:30:24;98406.63;;;-2.09;78.16
57232;BME280;43488;46.934;8.276;2023-02-10T04:32:51;98397.13;;;-2.24;78.87
57232;BME280;43488;46.934;8.276;2023-02-10T04:35:18;98394.22;;;-2.18;78.69
57232;BME280;43488;46.934;8.276;2023-02-10T04:37:46;98392.38;;;-2.16;78.88
57232;BME280;43488;46.934;8.276;2023-02-10T04:40:13;98396.03;;;-2.20;78.63
57232;BME280;43488;46.934;8.276;2023-02-10T04:42:40;98377.91;;;-2.19;78.78
57232;BME280;43488;46.934;8.276;2023-02-10T04:45:08;98392.81;;;-2.08;77.91
57232;BME280;43488;46.934;8.276;2023-02-10T04:47:35;98390.38;;;-2.11;77.29
57232;BME280;43488;46.934;8.276;2023-02-10T04:50:04;98399.03;;;-2.12;77.00
57232;BME280;43488;46.934;8.276;2023-02-10T04:52:31;98397.13;;;-2.24;76.60
57232;BME280;43488;46.934;8.276;2023-02-10T04:54:58;98394.63;;;-2.26;76.97
57232;BME280;43488;46.934;8.276;2023-02-10T04:57:25;98394.47;;;-2.23;76.64
57232;BME280;43488;46.934;8.276;2023-02-10T04:59:52;98387.91;;;-2.28;76.30
57232;BME280;43488;46.934;8.276;2023-02-10T05:02:20;98388.78;;;-2.30;76.95
57232;BME280;43488;46.934;8.276;2023-02-10T05:04:48;98393.72;;;-2.25;77.63
57232;BME280;43488;46.934;8.276;2023-02-10T05:07:15;98396.38;;;-2.26;77.63
57232;BME280;43488;46.934;8.276;2023-02-10T05:09:43;98396.38;;;-2.26;76.83
57232;BME280;43488;46.934;8.276;2023-02-10T05:12:13;98393.78;;;-2.26;75.71
57232;BME280;43488;46.934;8.276;2023-02-10T05:14:41;98392.97;;;-2.27;75.19
57232;BME280;43488;46.934;8.276;2023-02-10T05:17:09;98404.34;;;-2.47;74.70
57232;BME280;43488;46.934;8.276;2023-02-10T05:19:36;98400.97;;;-2.49;75.49
57232;BME280;43488;46.934;8.276;2023-02-10T05:22:04;98394.03;;;-2.47;75.89
57232;BME280;43488;46.934;8.276;2023-02-10T05:24:32;98398.19;;;-2.44;76.50
57232;BME280;43488;46.934;8.276;2023-02-10T05:26:59;98407.50;;;-2.42;76.82
57232;BME280;43488;46.934;8.276;2023-02-10T05:29:26;98400.50;;;-2.40;76.79
57232;BME280;43488;46.934;8.276;2023-02-10T05:31:53;98406.00;;;-2.46;77.41
57232;BME280;43488;46.934;8.276;2023-02-10T05:34:21;98410.72;;;-2.38;76.97
57232;BME280;43488;46.934;8.276;2023-02-10T05:36:48;98399.75;;;-2.42;75.78
57232;BME280;43488;46.934;8.276;2023-02-10T05:39:17;98404.88;;;-2.58;76.53
57232;BME280;43488;46.934;8.276;2023-02-10T05:41:55;98393.97;;;-2.63;76.62
57232;BME280;43488;46.934;8.276;2023-02-10T05:44:25;98397.38;;;-2.62;76.67
57232;BME280;43488;46.934;8.276;2023-02-10T05:46:53;98399.97;;;-2.62;76.63
57232;BME280;43488;46.934;8.276;2023-02-10T05:49:21;98396.22;;;-2.57;76.41
57232;BME280;43488;46.934;8.276;2023-02-10T05:51:48;98391.22;;;-2.60;76.01
57232;BME280;43488;46.934;8.276;2023-02-10T05:54:15;98399.72;;;-2.58;76.44
57232;BME280;43488;46.934;8.276;2023-02-10T05:56:43;98396.22;;;-2.57;75.88
57232;BME280;43488;46.934;8.276;2023-02-10T05:59:11;98401.63;;;-2.61;76.44
57232;BME280;43488;46.934;8.276;2023-02-10T06:01:42;98404.38;;;-2.64;77.38
57232;BME280;43488;46.934;8.276;2023-02-10T06:04:11;98405.72;;;-2.74;76.87
57232;BME280;43488;46.934;8.276;2023-02-10T06:06:38;98413.63;;;-2.77;77.05
57232;BME280;43488;46.934;8.276;2023-02-10T06:09:06;98417.75;;;-2.73;77.12
57232;BME280;43488;46.934;8.276;2023-02-10T06:11:34;98415.63;;;-2.82;77.82
57232;BME280;43488;46.934;8.276;2023-02-10T06:14:01;98418.34;;;-2.86;77.22
57232;BME280;43488;46.934;8.276;2023-02-10T06:16:29;98416.84;;;-2.90;77.37
57232;BME280;43488;46.934;8.276;2023-02-10T06:18:58;98418.06;;;-2.97;77.84
57232;BME280;43488;46.934;8.276;2023-02-10T06:21:25;98424.50;;;-2.88;77.42
57232;BME280;43488;46.934;8.276;2023-02-10T06:23:53;98432.59;;;-2.96;76.22
57232;BME280;43488;46.934;8.276;2023-02-10T06:26:20;98422.13;;;-2.93;76.14
57232;BME280;43488;46.934;8.276;2023-02-10T06:28:47;98417.84;;;-2.92;75.37
57232;BME280;43488;46.934;8.276;2023-02-10T06:31:14;98431.47;;;-2.90;74.59
57232;BME280;43488;46.934;8.276;2023-02-10T06:33:42;98433.88;;;-2.87;74.39
57232;BME280;43488;46.934;8.276;2023-02-10T06:36:10;98432.69;;;-2.80;74.29
57232;BME280;43488;46.934;8.276;2023-02-10T06:38:37;98433.03;;;-2.70;73.53
57232;BME280;43488;46.934;8.276;2023-02-10T06:41:05;98444.44;;;-2.92;73.42
57232;BME280;43488;46.934;8.276;2023-02-10T06:43:33;98458.38;;;-2.96;73.97
57232;BME280;43488;46.934;8.276;2023-02-10T06:46:01;98452.31;;;-2.95;73.89
57232;BME280;43488;46.934;8.276;2023-02-10T06:48:28;98464.59;;;-3.00;73.90
57232;BME280;43488;46.934;8.276;2023-02-10T06:50:55;98465.56;;;-3.02;73.98
57232;BME280;43488;46.934;8.276;2023-02-10T06:53:23;98461.94;;;-2.98;74.31
57232;BME280;43488;46.934;8.276;2023-02-10T06:55:51;98469.59;;;-2.97;74.71
57232;BME280;43488;46.934;8.276;2023-02-10T06:58:21;98477.31;;;-2.97;75.12
57232;BME280;43488;46.934;8.276;2023-02-10T07:00:48;98484.16;;;-2.96;75.54
57232;BME280;43488;46.934;8.276;2023-02-10T07:03:16;98491.88;;;-2.96;75.10
57232;BME280;43488;46.934;8.276;2023-02-10T07:05:44;98492.72;;;-2.95;74.51
57232;BME280;43488;46.934;8.276;2023-02-10T07:08:13;98485.81;;;-2.95;74.51
57232;BME280;43488;46.934;8.276;2023-02-10T07:10:40;98489.91;;;-2.91;74.00
57232;BME280;43488;46.934;8.276;2023-02-10T07:13:08;98493.09;;;-2.86;74.11
57232;BME280;43488;46.934;8.276;2023-02-10T07:15:35;98491.34;;;-2.85;74.27
57232;BME280;43488;46.934;8.276;2023-02-10T07:18:03;98488.69;;;-2.83;74.18
57232;BME280;43488;46.934;8.276;2023-02-10T07:20:30;98494.84;;;-2.86;74.13
57232;BME280;43488;46.934;8.276;2023-02-10T07:22:58;98488.00;;;-2.87;74.27
57232;BME280;43488;46.934;8.276;2023-02-10T07:25:25;98484.59;;;-2.88;74.59
57232;BME280;43488;46.934;8.276;2023-02-10T07:27:53;98483.41;;;-2.80;74.99
57232;BME280;43488;46.934;8.276;2023-02-10T07:30:21;98483.41;;;-2.80;75.18
57232;BME280;43488;46.934;8.276;2023-02-10T07:32:49;98496.22;;;-2.79;75.28
57232;BME280;43488;46.934;8.276;2023-02-10T07:35:18;98484.78;;;-2.73;75.29
57232;BME280;43488;46.934;8.276;2023-02-10T07:37:45;98483.59;;;-2.68;75.04
57232;BME280;43488;46.934;8.276;2023-02-10T07:40:13;98485.53;;;-2.71;75.64
57232;BME280;43488;46.934;8.276;2023-02-10T07:42:42;98490.50;;;-2.68;75.57
57232;BME280;43488;46.934;8.276;2023-02-10T07:45:11;98497.19;;;-2.64;75.62
57232;BME280;43488;46.934;8.276;2023-02-10T07:47:38;98491.13;;;-2.63;75.77
57232;BME280;43488;46.934;8.276;2023-02-10T07:50:05;98488.75;;;-2.68;75.70
57232;BME280;43488;46.934;8.276;2023-02-10T07:52:33;98480.13;;;-2.67;76.05
57232;BME280;43488;46.934;8.276;2023-02-10T07:55:00;98482.69;;;-2.67;75.72
57232;BME280;43488;46.934;8.276;2023-02-10T07:57:30;98483.31;;;-2.62;75.32
57232;BME280;43488;46.934;8.276;2023-02-10T07:59:57;98480.34;;;-2.54;75.11
57232;BME280;43488;46.934;8.276;2023-02-10T08:02:24;98485.03;;;-2.45;74.94
57232;BME280;43488;46.934;8.276;2023-02-10T08:04:51;98484.56;;;-2.36;74.49
57232;BME280;43488;46.934;8.276;2023-02-10T08:07:21;98476.59;;;-2.31;74.43
57232;BME280;43488;46.934;8.276;2023-02-10T08:09:48;98473.53;;;-2.22;74.28
57232;BME280;43488;46.934;8.276;2023-02-10T08:12:15;98480.41;;;-2.05;74.18
57232;BME280;43488;46.934;8.276;2023-02-10T08:14:42;98476.41;;;-1.95;72.83
57232;BME280;43488;46.934;8.276;2023-02-10T08:17:10;98484.66;;;-1.88;71.75
57232;BME280;43488;46.934;8.276;2023-02-10T08:19:38;98480.75;;;-1.80;71.19
57232;BME280;43488;46.934;8.276;2023-02-10T08:22:05;98479.53;;;-1.73;72.18
57232;BME280;43488;46.934;8.276;2023-02-10T08:24:32;98482.25;;;-1.60;72.23
57232;BME280;43488;46.934;8.276;2023-02-10T08:27:00;98487.94;;;-1.53;72.94
57232;BME280;43488;46.934;8.276;2023-02-10T08:29:28;98483.84;;;-1.41;72.66
57232;BME280;43488;46.934;8.276;2023-02-10T08:31:55;98484.81;;;-1.28;71.23
57232;BME280;43488;46.934;8.276;2023-02-10T08:34:22;98481.16;;;-1.08;71.11
57232;BME280;43488;46.934;8.276;2023-02-10T08:36:51;98481.19;;;-0.94;70.87
57232;BME280;43488;46.934;8.276;2023-02-10T08:39:19;98478.56;;;-0.78;70.08
57232;BME280;43488;46.934;8.276;2023-02-10T08:41:46;98484.03;;;-0.69;70.91
57232;BME280;43488;46.934;8.276;2023-02-10T08:44:14;98477.28;;;-0.57;70.55
57232;BME280;43488;46.934;8.276;2023-02-10T08:46:41;98493.13;;;-0.47;69.44
57232;BME280;43488;46.934;8.276;2023-02-10T08:49:09;98484.56;;;-0.34;69.26
57232;BME280;43488;46.934;8.276;2023-02-10T08:51:37;98487.22;;;-0.21;68.59
57232;BME280;43488;46.934;8.276;2023-02-10T08:54:06;98489.09;;;-0.09;67.93
57232;BME280;43488;46.934;8.276;2023-02-10T08:56:34;98488.00;;;0.10;67.61
57232;BME280;43488;46.934;8.276;2023-02-10T08:59:02;98489.09;;;0.20;65.99
57232;BME280;43488;46.934;8.276;2023-02-10T09:01:29;98489.25;;;0.31;66.24
57232;BME280;43488;46.934;8.276;2023-02-10T09:03:57;98487.38;;;0.33;66.94
57232;BME280;43488;46.934;8.276;2023-02-10T09:06:32;98491.72;;;0.47;67.77
57232;BME280;43488;46.934;8.276;2023-02-10T09:09:15;98489.75;;;0.65;67.91
57232;BME280;43488;46.934;8.276;2023-02-10T09:11:43;98491.44;;;0.78;67.58
57232;BME280;43488;46.934;8.276;2023-02-10T09:14:10;98489.00;;;0.90;67.48
57232;BME280;43488;46.934;8.276;2023-02-10T09:16:40;98489.44;;;0.96;67.02
57232;BME280;43488;46.934;8.276;2023-02-10T09:19:08;98484.78;;;1.01;66.36
57232;BME280;43488;46.934;8.276;2023-02-10T09:21:35;98485.75;;;1.13;66.42
57232;BME280;43488;46.934;8.276;2023-02-10T09:24:03;98482.25;;;1.27;65.25
57232;BME280;43488;46.934;8.276;2023-02-10T09:26:30;98481.53;;;1.25;63.64
57232;BME280;43488;46.934;8.276;2023-02-10T09:28:58;98484.34;;;1.34;63.49
57232;BME280;43488;46.934;8.276;2023-02-10T09:31:25;98485.09;;;1.49;61.80
57232;BME280;43488;46.934;8.276;2023-02-10T09:33:53;98485.09;;;1.62;62.21
57232;BME280;43488;46.934;8.276;2023-02-10T09:36:20;98477.81;;;1.80;58.49
57232;BME280;43488;46.934;8.276;2023-02-10T09:38:48;98484.06;;;1.90;57.71
57232;BME280;43488;46.934;8.276;2023-02-10T09:41:41;98475.53;;;2.13;58.75
57232;BME280;43488;46.934;8.276;2023-02-10T09:44:20;98472.47;;;2.19;57.05
57232;BME280;43488;46.934;8.276;2023-02-10T09:47:25;98466.09;;;2.36;56.86
57232;BME280;43488;46.934;8.276;2023-02-10T09:53:25;98468.59;;;2.74;54.67
57232;BME280;43488;46.934;8.276;2023-02-10T09:56:03;98470.06;;;2.90;52.59
57232;BME280;43488;46.934;8.276;2023-02-10T09:58:43;98462.09;;;3.04;52.76
57232;BME280;43488;46.934;8.276;2023-02-10T10:04:09;98459.72;;;3.47;53.14
57232;BME280;43488;46.934;8.276;2023-02-10T10:06:44;98468.88;;;3.53;50.02
57232;BME280;43488;46.934;8.276;2023-02-10T10:11:59;98472.72;;;3.93;51.32
57232;BME280;43488;46.934;8.276;2023-02-10T10:14:37;98461.81;;;4.11;51.71
57232;BME280;43488;46.934;8.276;2023-02-10T10:17:28;98463.22;;;4.26;51.78
57232;BME280;43488;46.934;8.276;2023-02-10T10:20:21;98467.94;;;4.54;52.49
57232;BME280;43488;46.934;8.276;2023-02-10T10:22:56;98463.28;;;4.69;51.27
57232;BME280;43488;46.934;8.276;2023-02-10T10:28:25;98467.69;;;5.01;45.37
57232;BME280;43488;46.934;8.276;2023-02-10T10:33:45;98454.97;;;5.28;42.50
57232;BME280;43488;46.934;8.276;2023-02-10T10:36:22;98457.09;;;5.55;42.17
57232;BME280;43488;46.934;8.276;2023-02-10T10:38:52;98457.59;;;5.70;42.90
57232;BME280;43488;46.934;8.276;2023-02-10T10:41:22;98465.88;;;5.96;41.20
57232;BME280;43488;46.934;8.276;2023-02-10T10:43:52;98445.56;;;6.09;40.86
57232;BME280;43488;46.934;8.276;2023-02-10T10:46:40;98444.56;;;6.31;39.84
57232;BME280;43488;46.934;8.276;2023-02-10T10:49:09;98433.72;;;6.45;39.36
57232;BME280;43488;46.934;8.276;2023-02-10T10:51:37;98436.94;;;6.68;39.18
57232;BME280;43488;46.934;8.276;2023-02-10T10:54:10;98436.13;;;6.97;39.18
57232;BME280;43488;46.934;8.276;2023-02-10T10:56:54;98429.91;;;7.27;38.46
57232;BME280;43488;46.934;8.276;2023-02-10T10:59:39;98420.06;;;7.58;37.94
57232;BME280;43488;46.934;8.276;2023-02-10T11:02:14;98422.81;;;7.56;39.90
57232;BME280;43488;46.934;8.276;2023-02-10T11:04:41;98417.50;;;7.85;40.13
57232;BME280;43488;46.934;8.276;2023-02-10T11:07:10;98410.78;;;8.10;40.47
57232;BME280;43488;46.934;8.276;2023-02-10T11:09:40;98403.31;;;8.43;39.79
57232;BME280;43488;46.934;8.276;2023-02-10T11:12:32;98400.03;;;8.76;40.57
57232;BME280;43488;46.934;8.276;2023-02-10T11:15:01;98398.47;;;9.01;39.03
57232;BME280;43488;46.934;8.276;2023-02-10T11:17:38;98394.13;;;8.92;37.49
57232;BME280;43488;46.934;8.276;2023-02-10T11:22:38;98392.66;;;9.59;36.88
57232;BME280;43488;46.934;8.276;2023-02-10T11:25:35;98389.19;;;9.85;35.34
57232;BME280;43488;46.934;8.276;2023-02-10T11:28:05;98391.16;;;10.17;34.98
57232;BME280;43488;46.934;8.276;2023-02-10T11:30:37;98390.78;;;10.46;34.79
57232;BME280;43488;46.934;8.276;2023-02-10T11:33:05;98383.91;;;9.85;35.69
57232;BME280;43488;46.934;8.276;2023-02-10T11:35:33;98382.72;;;10.47;35.05
57232;BME280;43488;46.934;8.276;2023-02-10T11:38:05;98378.84;;;10.92;35.06
57232;BME280;43488;46.934;8.276;2023-02-10T11:41:00;98376.81;;;12.15;32.93
57232;BME280;43488;46.934;8.276;2023-02-10T11:43:31;98377.91;;;13.51;31.02
57232;BME280;43488;46.934;8.276;2023-02-10T11:46:02;98373.66;;;15.24;27.72
57232;BME280;43488;46.934;8.276;2023-02-10T11:48:31;98371.31;;;17.67;24.33
57232;BME280;43488;46.934;8.276;2023-02-10T11:53:34;98370.53;;;21.69;19.68
57232;BME280;43488;46.934;8.276;2023-02-10T11:59:38;98354.34;;;24.36;16.38
57232;BME280;43488;46.934;8.276;2023-02-10T12:02:17;98356.09;;;25.28;15.21
57232;BME280;43488;46.934;8.276;2023-02-10T12:07:46;98353.38;;;26.60;14.36
57232;BME280;43488;46.934;8.276;2023-02-10T12:10:39;98352.81;;;25.21;15.21
57232;BME280;43488;46.934;8.276;2023-02-10T12:13:19;98351.44;;;26.45;15.30
57232;BME280;43488;46.934;8.276;2023-02-10T12:18:53;98346.91;;;28.68;13.72
57232;BME280;43488;46.934;8.276;2023-02-10T12:24:26;98349.38;;;28.00;13.41
57232;BME280;43488;46.934;8.276;2023-02-10T12:27:14;98334.38;;;29.22;12.81
57232;BME280;43488;46.934;8.276;2023-02-10T12:32:42;98346.63;;;30.73;11.91
57232;BME280;43488;46.934;8.276;2023-02-10T12:35:48;98341.00;;;30.45;11.36
57232;BME280;43488;46.934;8.276;2023-02-10T12:45:07;98332.88;;;31.67;10.88
57232;BME280;43488;46.934;8.276;2023-02-10T12:50:55;98336.44;;;30.59;11.21
57232;BME280;43488;46.934;8.276;2023-02-10T12:53:57;98341.00;;;30.64;11.40
57232;BME280;43488;46.934;8.276;2023-02-10T12:56:39;98331.66;;;31.59;11.11
57232;BME280;43488;46.934;8.276;2023-02-10T12:59:18;98331.41;;;32.02;10.34
57232;BME280;43488;46.934;8.276;2023-02-10T13:01:54;98327.06;;;32.56;10.48
57232;BME280;43488;46.934;8.276;2023-02-10T13:04:33;98319.38;;;32.80;10.45
57232;BME280;43488;46.934;8.276;2023-02-10T13:07:48;98325.81;;;33.74;9.75
57232;BME280;43488;46.934;8.276;2023-02-10T13:10:36;98329.72;;;33.28;10.00
57232;BME280;43488;46.934;8.276;2023-02-10T13:18:26;98326.75;;;31.29;11.09
57232;BME280;43488;46.934;8.276;2023-02-10T13:21:06;98318.28;;;32.81;10.61
57232;BME280;43488;46.934;8.276;2023-02-10T13:23:48;98311.44;;;33.51;10.28
57232;BME280;43488;46.934;8.276;2023-02-10T13:32:55;98318.97;;;32.51;10.48
57232;BME280;43488;46.934;8.276;2023-02-10T13:35:27;98322.94;;;32.31;10.54
57232;BME280;43488;46.934;8.276;2023-02-10T13:38:05;98316.59;;;32.72;10.22
57232;BME280;43488;46.934;8.276;2023-02-10T13:40:48;98311.88;;;33.45;10.09
57232;BME280;43488;46.934;8.276;2023-02-10T13:43:33;98309.03;;;33.05;9.93
57232;BME280;43488;46.934;8.276;2023-02-10T13:46:03;98308.91;;;32.88;9.76
57232;BME280;43488;46.934;8.276;2023-02-10T13:48:36;98314.47;;;33.27;9.79
57232;BME280;43488;46.934;8.276;2023-02-10T13:51:07;98316.97;;;32.79;10.25
57232;BME280;43488;46.934;8.276;2023-02-10T14:04:00;98323.59;;;29.45;12.04
57232;BME280;43488;46.934;8.276;2023-02-10T14:06:40;98326.53;;;30.50;11.22
57232;BME280;43488;46.934;8.276;2023-02-10T14:09:34;98323.84;;;28.76;12.49
57232;BME280;43488;46.934;8.276;2023-02-10T14:12:27;98334.22;;;31.18;11.20
57232;BME280;43488;46.934;8.276;2023-02-10T14:14:55;98327.13;;;29.75;11.58
57232;BME280;43488;46.934;8.276;2023-02-10T14:17:25;98333.75;;;30.36;11.15
57232;BME280;43488;46.934;8.276;2023-02-10T14:19:57;98329.03;;;29.45;11.57
57232;BME280;43488;46.934;8.276;2023-02-10T14:27:34;98332.06;;;29.05;12.05
57232;BME280;43488;46.934;8.276;2023-02-10T14:30:15;98333.41;;;30.42;11.73
57232;BME280;43488;46.934;8.276;2023-02-10T14:32:46;98332.28;;;28.69;12.57
57232;BME280;43488;46.934;8.276;2023-02-10T14:35:23;98338.13;;;29.60;12.20
57232;BME280;43488;46.934;8.276;2023-02-10T14:37:53;98329.72;;;30.33;12.10
57232;BME280;43488;46.934;8.276;2023-02-10T14:40:24;98340.03;;;30.36;11.61
57232;BME280;43488;46.934;8.276;2023-02-10T14:42:52;98335.69;;;29.24;12.70
57232;BME280;43488;46.934;8.276;2023-02-10T14:45:24;98340.91;;;29.79;12.38
57232;BME280;43488;46.934;8.276;2023-02-10T14:47:56;98340.53;;;29.32;12.34
57232;BME280;43488;46.934;8.276;2023-02-10T14:50:31;98329.25;;;29.54;12.69
57232;BME280;43488;46.934;8.276;2023-02-10T14:53:01;98338.03;;;28.63;12.95
57232;BME280;43488;46.934;8.276;2023-02-10T14:55:33;98343.28;;;28.33;13.11
57232;BME280;43488;46.934;8.276;2023-02-10T14:58:11;98348.41;;;28.95;13.07
57232;BME280;43488;46.934;8.276;2023-02-10T15:00:42;98347.41;;;28.80;13.12